Time;durP1;ratioP1;P1;durP2;ratioP2;P2;SDS_P1;SDS_P2;PMS_P1;PMS_P2;Temp;Humidity;BMP_temperature;BMP_pressure;BME280_temperature;BME280_humidity;BME280_pressure;Samples;Min_cycle;Max_cycle;Signal;HPM_P1;HPM_P2
2023/04/28 00:02:23;;;;;;;12.27;10.68;;;;;;;8.62;74.79;101250.63;5044334;28;20627;-85
2023/04/28 00:04:48;;;;;;;16.42;11.45;;;;;;;8.58;75.46;101247.34;5048591;28;20060;-85
2023/04/28 00:07:13;;;;;;;16.50;12.27;;;;;;;8.60;76.89;101245.47;5042514;28;20109;-86
2023/04/28 00:09:39;;;;;;;15.27;12.65;;;;;;;8.60;77.32;101242.84;5028989;28;20104;-85
2023/04/28 00:12:04;;;;;;;16.25;12.45;;;;;;;8.59;75.94;101237.72;5029041;28;20021;-85
2023/04/28 00:14:37;;;;;;;13.20;11.75;;;;;;;8.59;76.08;101241.16;5028725;28;20057;-85
2023/04/28 00:17:02;;;;;;;;;;;;;;;8.64;72.89;101228.63;5038214;28;20040;-84
2023/04/28 00:19:30;;;;;;;17.35;12.68;;;;;;;8.51;77.41;101232.06;5048118;28;20372;-84
2023/04/28 00:22:01;;;;;;;17.13;12.70;;;;;;;8.40;79.67;101220.41;5048776;28;20033;-84
2023/04/28 00:24:31;;;;;;;14.70;12.50;;;;;;;8.42;78.83;101222.97;5049166;28;20058;-84
2023/04/28 00:26:57;;;;;;;16.60;13.27;;;;;;;8.37;80.67;101225.00;5045514;28;20079;-84
2023/04/28 00:29:30;;;;;;;16.55;13.63;;;;;;;8.38;82.47;101222.28;5045742;28;20020;-84
2023/04/28 00:31:56;;;;;;;18.75;13.05;;;;;;;8.30;80.68;101218.41;5063889;28;20217;-84
2023/04/28 00:34:36;;;;;;;16.20;13.45;;;;;;;8.26;80.54;101209.03;5041806;28;20098;-84
2023/04/28 00:37:02;;;;;;;17.77;13.13;;;;;;;8.19;83.75;101195.44;5055790;28;20486;-84
2023/04/28 00:39:27;;;;;;;16.88;14.18;;;;;;;8.12;84.36;101192.34;5037489;28;20055;-84
2023/04/28 00:41:56;;;;;;;16.50;14.80;;;;;;;8.07;86.67;101186.53;5050877;28;20041;-84
2023/04/28 00:44:30;;;;;;;17.73;14.70;;;;;;;8.01;87.08;101189.50;5050593;28;20075;-85
2023/04/28 00:46:59;;;;;;;18.70;16.02;;;;;;;7.94;88.77;101185.53;5050763;28;20027;-85
2023/04/28 00:49:25;;;;;;;17.67;15.77;;;;;;;7.93;89.89;101177.75;5064028;28;20071;-85
2023/04/28 00:51:51;;;;;;;17.42;15.63;;;;;;;7.86;89.65;101175.50;5047904;28;20064;-85
2023/04/28 00:54:16;;;;;;;18.92;15.77;;;;;;;7.81;90.77;101168.84;5051077;28;20029;-86
2023/04/28 00:56:50;;;;;;;22.60;16.02;;;;;;;7.72;91.05;101164.97;5050978;28;20071;-86
2023/04/28 00:59:16;;;;;;;20.75;15.88;;;;;;;7.68;91.45;101155.59;5049374;28;20450;-86
2023/04/28 01:01:45;;;;;;;18.13;16.30;;;;;;;7.60;92.34;101162.19;5050791;28;20100;-86
2023/04/28 01:04:14;;;;;;;21.42;16.67;;;;;;;7.64;92.90;101158.50;5047301;28;20033;-86
2023/04/28 01:06:43;;;;;;;18.63;16.02;;;;;;;7.60;93.30;101165.66;5049578;28;20025;-86
2023/04/28 01:09:08;;;;;;;20.98;16.55;;;;;;;7.55;92.96;101163.28;5049490;28;20036;-86
2023/04/28 01:11:39;;;;;;;17.92;15.85;;;;;;;7.54;92.47;101166.00;5051225;28;20013;-86
2023/04/28 01:14:04;;;;;;;20.70;16.13;;;;;;;7.53;93.54;101159.91;5049998;28;20021;-86
2023/04/28 01:16:31;;;;;;;21.92;15.68;;;;;;;7.51;92.92;101161.78;5050217;28;20028;-85
2023/04/28 01:18:57;;;;;;;18.13;15.77;;;;;;;7.46;92.44;101145.50;5049584;28;20112;-85
2023/04/28 01:21:43;;;;;;;20.50;16.02;;;;;;;7.47;93.20;101131.47;5050908;28;20111;-85
2023/04/28 01:24:08;;;;;;;20.67;16.30;;;;;;;7.42;94.02;101128.25;5048912;28;20501;-84
2023/04/28 01:26:34;;;;;;;19.52;16.80;;;;;;;7.39;95.32;101131.06;5062106;28;20083;-85
2023/04/28 01:29:00;;;;;;;20.30;16.30;;;;;;;7.33;95.59;101131.41;5051906;28;20021;-85
2023/04/28 01:31:29;;;;;;;19.48;17.27;;;;;;;7.37;96.07;101132.91;5046517;28;20374;-85
2023/04/28 01:33:55;;;;;;;19.27;17.23;;;;;;;7.37;95.73;101132.91;5045447;28;20565;-86
2023/04/28 01:36:27;;;;;;;19.92;17.25;;;;;;;7.36;95.73;101131.22;5030628;28;20478;-86
2023/04/28 01:38:55;;;;;;;20.13;16.50;;;;;;;7.38;96.13;101124.13;5043034;28;20112;-86
2023/04/28 01:41:23;;;;;;;22.98;17.52;;;;;;;7.38;97.98;101124.13;5046600;28;20041;-86
2023/04/28 01:43:52;;;;;;;19.98;17.73;;;;;;;7.39;97.18;101112.72;5049012;28;20132;-86
2023/04/28 01:46:20;;;;;;;20.92;16.88;;;;;;;7.41;97.00;101126.56;5048373;28;20037;-85
2023/04/28 01:48:46;;;;;;;21.08;18.05;;;;;;;7.41;97.28;101118.72;5065775;28;20494;-86
2023/04/28 01:51:17;;;;;;;21.42;17.20;;;;;;;7.36;96.61;101122.53;5049881;28;20112;-86
2023/04/28 01:53:43;;;;;;;23.45;18.60;;;;;;;7.39;97.52;101115.34;5049169;28;20362;-86
2023/04/28 01:56:14;;;;;;;21.45;17.75;;;;;;;7.41;97.72;101113.50;5044526;28;20086;-85
2023/04/28 01:58:39;;;;;;;20.60;17.42;;;;;;;7.42;97.67;101115.19;5043633;28;20032;-85
2023/04/28 02:01:07;;;;;;;25.05;18.70;;;;;;;7.40;97.92;101110.97;5028531;28;20026;-85
2023/04/28 02:03:33;;;;;;;21.92;18.58;;;;;;;7.38;98.17;101108.44;5045024;28;20108;-85
2023/04/28 02:06:01;;;;;;;21.33;18.35;;;;;;;7.39;98.50;101114.50;5038072;28;20127;-86
2023/04/28 02:08:26;;;;;;;20.50;18.00;;;;;;;7.38;98.52;101111.06;5033887;28;20435;-85
2023/04/28 02:10:56;;;;;;;22.95;18.90;;;;;;;7.42;98.32;101119.56;5048934;28;20108;-84
2023/04/28 02:13:22;;;;;;;23.08;18.40;;;;;;;7.43;98.04;101110.78;5049080;28;20276;-84
2023/04/28 02:15:51;;;;;;;24.67;19.27;;;;;;;7.43;99.06;101111.63;5047381;28;20187;-84
2023/04/28 02:18:16;;;;;;;21.85;19.40;;;;;;;7.46;99.50;101100.97;5050218;28;20104;-84
2023/04/28 02:20:50;;;;;;;22.23;18.98;;;;;;;7.46;100.00;101095.75;5049157;28;20115;-84
2023/04/28 02:23:15;;;;;;;21.08;18.88;;;;;;;7.50;99.70;101094.63;5049633;28;20029;-85
2023/04/28 02:25:44;;;;;;;22.02;18.48;;;;;;;7.52;99.68;101087.53;5050742;28;20040;-84
2023/04/28 02:28:12;;;;;;;21.50;18.40;;;;;;;7.54;98.60;101085.66;5046704;28;20021;-84
2023/04/28 02:30:38;;;;;;;22.85;18.65;;;;;;;7.58;97.57;101077.63;5048308;28;20503;-84
2023/04/28 02:33:11;;;;;;;21.55;18.88;;;;;;;7.60;96.99;101060.06;5049253;28;20021;-84
2023/04/28 02:35:44;;;;;;;24.35;18.23;;;;;;;7.62;96.69;101047.75;5049999;28;20028;-84
2023/04/28 02:38:12;;;;;;;22.67;18.90;;;;;;;7.61;96.22;101035.59;5048017;28;20032;-84
2023/04/28 02:40:37;;;;;;;25.00;19.70;;;;;;;7.59;97.39;101021.72;5047114;28;20116;-84
2023/04/28 02:43:05;;;;;;;24.85;19.83;;;;;;;7.58;97.20;101020.03;5048047;28;20131;-84
2023/04/28 02:45:34;;;;;;;27.05;20.40;;;;;;;7.55;98.29;101011.44;5050000;28;20024;-84
2023/04/28 02:48:02;;;;;;;23.60;20.55;;;;;;;7.55;97.28;101005.34;5047789;28;20781;-83
2023/04/28 02:50:37;;;;;;;23.00;19.85;;;;;;;7.55;98.12;101003.56;5047550;28;20108;-84
2023/04/28 02:53:17;;;;;;;25.27;20.20;;;;;;;7.56;98.13;101007.03;5049518;28;20033;-84
2023/04/28 02:55:45;;;;;;;26.15;20.25;;;;;;;7.57;99.13;101023.59;5049397;28;20031;-84
2023/04/28 02:58:12;;;;;;;23.55;19.92;;;;;;;7.59;99.32;101019.09;5060695;28;20041;-84
2023/04/28 03:00:40;;;;;;;23.20;20.45;;;;;;;7.60;98.33;101020.78;5033980;28;20033;-85
2023/04/28 03:03:09;;;;;;;24.67;20.10;;;;;;;7.62;98.40;101017.19;5048457;28;20094;-84
2023/04/28 03:05:34;;;;;;;25.83;19.80;;;;;;;7.67;98.03;101019.53;5045893;28;20017;-84
2023/04/28 03:08:00;;;;;;;26.52;19.67;;;;;;;7.70;98.03;101021.94;5048944;28;20111;-84
2023/04/28 03:10:26;;;;;;;27.55;20.00;;;;;;;7.73;98.54;101022.59;5047179;28;20036;-84
2023/04/28 03:12:52;;;;;;;22.83;19.48;;;;;;;7.70;98.43;101014.09;5049265;28;20024;-84
2023/04/28 03:15:17;;;;;;;24.38;20.17;;;;;;;7.74;98.80;101016.44;5047330;28;20021;-84
2023/04/28 03:17:49;;;;;;;24.13;20.33;;;;;;;7.75;98.81;101012.88;5046017;28;20036;-84
2023/04/28 03:20:15;;;;;;;24.13;20.52;;;;;;;7.78;99.28;101017.09;5039972;28;20033;-84
2023/04/28 03:22:43;;;;;;;25.25;19.42;;;;;;;7.79;98.27;101016.16;5048807;28;20091;-83
2023/04/28 03:25:08;;;;;;;24.38;20.08;;;;;;;7.81;97.93;101016.91;5048072;28;20090;-83
2023/04/28 03:27:37;;;;;;;22.33;19.50;;;;;;;7.83;98.36;101025.53;5049046;28;20469;-84
2023/04/28 03:30:06;;;;;;;22.98;19.42;;;;;;;7.85;98.37;101023.66;5049009;28;20039;-84
2023/04/28 03:32:35;;;;;;;23.30;19.60;;;;;;;7.88;98.29;101017.38;5049191;28;20028;-83
2023/04/28 03:35:07;;;;;;;24.05;19.60;;;;;;;7.92;98.58;101019.72;5049633;28;20026;-83
2023/04/28 03:37:33;;;;;;;25.23;19.48;;;;;;;7.94;98.88;101003.91;5046804;28;20393;-83
2023/04/28 03:39:58;;;;;;;23.08;20.20;;;;;;;7.93;98.52;101002.22;5044637;28;20025;-83
2023/04/28 03:42:29;;;;;;;22.98;20.58;;;;;;;7.93;99.48;101000.44;5048827;28;20056;-83
2023/04/28 03:45:04;;;;;;;22.98;20.10;;;;;;;7.97;99.49;101001.94;5049596;28;20092;-83
2023/04/28 03:47:29;;;;;;;24.10;20.20;;;;;;;7.99;99.10;100997.44;5049070;28;20029;-84
2023/04/28 03:49:57;;;;;;;24.02;20.58;;;;;;;8.01;98.40;101011.34;5048286;28;20025;-84
2023/04/28 03:52:23;;;;;;;24.30;20.50;;;;;;;8.00;99.27;100996.50;5048321;28;20451;-83
2023/04/28 03:54:52;;;;;;;25.20;20.10;;;;;;;8.03;99.26;100985.88;5035650;28;20040;-83
2023/04/28 03:57:20;;;;;;;22.48;19.90;;;;;;;8.06;99.25;100979.59;5028930;28;20029;-84
2023/04/28 03:59:45;;;;;;;24.13;19.85;;;;;;;8.07;99.34;100979.50;5028698;28;20024;-84
2023/04/28 04:02:11;;;;;;;24.10;21.13;;;;;;;8.08;99.60;100978.56;5028004;28;20049;-84
2023/04/28 04:04:37;;;;;;;25.98;20.48;;;;;;;8.12;99.70;100977.44;5041413;28;20033;-84
2023/04/28 04:07:03;;;;;;;22.95;20.38;;;;;;;8.12;100.00;100980.06;5044101;28;20032;-84
2023/04/28 04:09:34;;;;;;;26.17;20.67;;;;;;;8.13;99.45;100970.44;5031882;28;20020;-85
2023/04/28 04:12:22;;;;;;;22.85;19.63;;;;;;;8.21;99.15;100983.06;5045745;28;20420;-84
2023/04/28 04:14:48;;;;;;;25.10;21.23;;;;;;;8.18;99.70;100974.44;5043023;28;20485;-84
2023/04/28 04:17:16;;;;;;;22.60;20.13;;;;;;;8.20;100.00;100976.13;5032793;28;20087;-85
2023/04/28 04:19:45;;;;;;;23.27;20.33;;;;;;;8.22;99.86;100979.50;5032260;28;20022;-85
2023/04/28 04:22:10;;;;;;;23.85;19.95;;;;;;;8.25;99.74;100976.69;5043654;28;20017;-85
2023/04/28 04:24:40;;;;;;;26.65;20.05;;;;;;;8.26;99.95;100984.44;5049967;28;20032;-85
2023/04/28 04:27:09;;;;;;;27.08;20.27;;;;;;;8.28;100.00;100976.47;5049257;28;20024;-84
2023/04/28 04:29:35;;;;;;;24.33;20.67;;;;;;;8.31;100.00;100978.91;5051677;28;20103;-84
2023/04/28 04:32:09;;;;;;;22.73;19.85;;;;;;;8.29;100.00;100968.53;5052003;28;20032;-84
2023/04/28 04:34:35;;;;;;;23.00;19.70;;;;;;;8.34;99.61;100969.09;5051421;28;20036;-84
2023/04/28 04:37:01;;;;;;;25.70;20.00;;;;;;;8.37;99.68;100968.06;5052517;28;20025;-84
2023/04/28 04:39:26;;;;;;;22.35;19.90;;;;;;;8.39;99.77;100951.31;5052309;28;20025;-85
2023/04/28 04:41:52;;;;;;;24.25;19.70;;;;;;;8.41;100.00;100953.84;5050459;28;20041;-85
2023/04/28 04:44:17;;;;;;;24.02;19.70;;;;;;;8.42;100.00;100953.75;5048992;28;20052;-84
2023/04/28 04:46:42;;;;;;;23.98;19.98;;;;;;;8.42;100.00;100945.91;5068171;28;20206;-85
2023/04/28 04:49:09;;;;;;;25.90;20.63;;;;;;;8.46;100.00;100936.91;5050049;28;20029;-85
2023/04/28 04:51:37;;;;;;;26.90;20.95;;;;;;;8.49;100.00;100938.47;5052570;28;20382;-84
2023/04/28 04:54:05;;;;;;;24.70;19.60;;;;;;;8.51;100.00;100933.13;5052089;28;20035;-84
2023/04/28 04:56:33;;;;;;;23.90;19.45;;;;;;;8.54;100.00;100939.03;5050410;28;20025;-84
2023/04/28 04:59:02;;;;;;;24.40;20.30;;;;;;;8.57;100.00;100932.72;5035950;28;20022;-84
2023/04/28 05:01:27;;;;;;;23.50;19.15;;;;;;;8.59;100.00;100936.94;5044400;28;20037;-84
2023/04/28 05:03:53;;;;;;;26.05;20.17;;;;;;;8.63;100.00;100938.44;5032077;28;20025;-84
2023/04/28 05:06:19;;;;;;;24.13;21.20;;;;;;;8.65;100.00;100925.22;5031770;28;20033;-84
2023/04/28 05:08:45;;;;;;;24.30;19.38;;;;;;;8.74;100.00;100935.09;5032052;28;20104;-84
2023/04/28 05:11:10;;;;;;;22.25;19.85;;;;;;;8.78;100.00;100932.19;5030769;28;20163;-84
2023/04/28 05:13:39;;;;;;;24.38;19.70;;;;;;;8.83;100.00;100931.06;5030441;28;20064;-84
2023/04/28 05:16:05;;;;;;;22.50;19.95;;;;;;;8.85;100.00;100926.56;5029087;28;20034;-83
2023/04/28 05:18:31;;;;;;;24.25;19.77;;;;;;;8.88;100.00;100936.84;5036774;28;20033;-84
2023/04/28 05:20:56;;;;;;;21.20;18.73;;;;;;;8.89;100.00;100942.00;5030261;28;20112;-84
2023/04/28 05:23:33;;;;;;;22.55;20.10;;;;;;;8.92;100.00;100938.31;5030835;28;20025;-84
2023/04/28 05:26:03;;;;;;;22.50;19.00;;;;;;;8.98;100.00;100943.16;5028704;28;20048;-85
2023/04/28 05:28:29;;;;;;;23.73;19.52;;;;;;;9.02;100.00;100942.03;5048316;28;20456;-84
2023/04/28 05:30:55;;;;;;;22.15;18.48;;;;;;;9.02;100.00;100942.03;5050159;28;20055;-84
2023/04/28 05:33:32;;;;;;;25.05;19.40;;;;;;;9.05;100.00;100934.78;5045148;28;20029;-84
2023/04/28 05:36:07;;;;;;;22.85;18.90;;;;;;;9.08;100.00;100939.81;5031563;28;20029;-84
2023/04/28 05:38:33;;;;;;;24.05;18.90;;;;;;;9.07;100.00;100937.31;5055782;28;20044;-85
2023/04/28 05:41:00;;;;;;;22.65;19.77;;;;;;;9.10;100.00;100934.47;5050714;28;20032;-84
2023/04/28 05:43:28;;;;;;;25.10;19.00;;;;;;;9.16;100.00;100930.59;5050356;28;20044;-84
2023/04/28 05:46:02;;;;;;;23.92;19.92;;;;;;;9.22;100.00;100936.31;5050144;28;20392;-84
2023/04/28 05:48:31;;;;;;;24.23;19.73;;;;;;;9.26;100.00;100943.03;5049396;28;20024;-84
2023/04/28 05:50:57;;;;;;;23.58;19.35;;;;;;;9.34;100.00;100935.47;5060471;28;20195;-84
2023/04/28 05:53:39;;;;;;;27.85;19.55;;;;;;;9.42;100.00;100941.03;5029622;28;20025;-84
2023/04/28 05:56:05;;;;;;;;;;;;;;;9.55;99.57;100921.81;5044719;28;20029;-85
2023/04/28 05:58:51;;;;;;;23.52;18.95;;;;;;;9.56;100.00;100918.25;5038194;28;19909;-83
2023/04/28 06:01:24;;;;;;;21.95;19.00;;;;;;;9.60;100.00;100925.81;5044931;28;20152;-84
2023/04/28 06:03:55;;;;;;;20.80;17.58;;;;;;;9.66;100.00;100914.91;5049482;28;20056;-84
2023/04/28 06:06:21;;;;;;;21.05;18.17;;;;;;;9.71;100.00;100914.56;5049520;28;20020;-84
2023/04/28 06:08:56;;;;;;;22.52;18.55;;;;;;;9.74;100.00;100919.63;5050644;28;20423;-84
2023/04/28 06:11:22;;;;;;;22.75;17.95;;;;;;;9.81;100.00;100920.03;5048055;28;20021;-83
2023/04/28 06:13:54;;;;;;;20.25;18.02;;;;;;;9.86;100.00;100910.88;5048098;28;20036;-83
2023/04/28 06:16:23;;;;;;;20.63;17.77;;;;;;;9.88;100.00;100914.22;5048840;28;20063;-82
2023/04/28 06:19:09;;;;;;;21.67;18.10;;;;;;;9.90;100.00;100920.22;5048237;28;20040;-83
2023/04/28 06:21:34;;;;;;;20.45;18.25;;;;;;;9.95;100.00;100922.53;5045745;28;20025;-83
2023/04/28 06:24:00;;;;;;;24.50;18.77;;;;;;;10.03;100.00;100915.81;5049957;28;20039;-83
2023/04/28 06:26:26;;;;;;;21.23;18.27;;;;;;;10.11;100.00;100911.78;5046780;28;20576;-83
2023/04/28 06:28:54;;;;;;;23.52;18.48;;;;;;;10.15;100.00;100915.88;5046204;28;20040;-83
2023/04/28 06:31:38;;;;;;;20.98;18.25;;;;;;;10.21;100.00;100918.09;5049367;28;20052;-83
2023/04/28 06:34:11;;;;;;;21.77;17.75;;;;;;;10.24;100.00;100921.34;5040351;28;20025;-83
2023/04/28 06:36:43;;;;;;;24.95;18.38;;;;;;;10.32;100.00;100923.41;5040521;28;20093;-83
2023/04/28 06:39:12;;;;;;;21.42;18.58;;;;;;;10.36;100.00;100919.63;5047972;28;20107;-83
2023/04/28 06:41:43;;;;;;;23.02;17.67;;;;;;;10.43;100.00;100926.16;5043736;28;20036;-83
2023/04/28 06:44:12;;;;;;;22.10;17.27;;;;;;;10.46;100.00;100923.28;5063290;28;20037;-83
2023/04/28 06:46:37;;;;;;;19.88;16.92;;;;;;;10.44;100.00;100919.94;5048811;28;20041;-83
2023/04/28 06:49:09;;;;;;;20.50;17.40;;;;;;;10.49;100.00;100917.81;5032777;28;20531;-84
2023/04/28 06:51:35;;;;;;;23.45;17.95;;;;;;;10.47;100.00;100909.19;5059101;28;20021;-83
2023/04/28 06:54:00;;;;;;;21.98;16.73;;;;;;;10.49;100.00;100909.06;5037022;28;20033;-83
2023/04/28 06:56:28;;;;;;;23.75;17.52;;;;;;;10.54;100.00;100913.03;5044489;28;20021;-83
2023/04/28 06:58:55;;;;;;;20.77;18.55;;;;;;;10.54;100.00;100904.31;5046482;28;20170;-83
2023/04/28 07:01:21;;;;;;;20.42;18.25;;;;;;;10.58;100.00;100901.34;5046903;28;20035;-83
2023/04/28 07:03:47;;;;;;;21.52;18.58;;;;;;;10.63;100.00;100899.22;5044641;28;20037;-83
2023/04/28 07:06:12;;;;;;;20.10;18.10;;;;;;;10.68;100.00;100899.72;5046259;28;20032;-83
2023/04/28 07:08:38;;;;;;;25.00;18.08;;;;;;;10.75;100.00;100905.34;5045137;28;20036;-83
2023/04/28 07:11:05;;;;;;;19.75;17.73;;;;;;;10.83;100.00;100910.09;5044634;28;20104;-83
2023/04/28 07:13:31;;;;;;;22.13;17.80;;;;;;;10.88;100.00;100902.69;5042624;28;20033;-83
2023/04/28 07:15:57;;;;;;;20.45;18.00;;;;;;;10.96;100.00;100897.69;5062826;28;20033;-83
2023/04/28 07:18:25;;;;;;;19.65;17.25;;;;;;;11.01;100.00;100898.16;5029244;28;20311;-84
2023/04/28 07:20:51;;;;;;;19.63;17.50;;;;;;;11.07;100.00;100899.50;5035817;28;20029;-84
2023/04/28 07:23:16;;;;;;;18.30;16.50;;;;;;;11.08;100.00;100895.91;5030467;28;20040;-84
2023/04/28 07:25:44;;;;;;;18.98;16.98;;;;;;;11.07;100.00;100897.72;5049513;28;20024;-84
2023/04/28 07:28:10;;;;;;;19.85;16.88;;;;;;;11.17;100.00;100908.38;5047543;28;20045;-84
2023/04/28 07:30:41;;;;;;;20.70;16.98;;;;;;;11.16;100.00;100899.63;5049182;28;20033;-83
2023/04/28 07:33:06;;;;;;;19.10;16.77;;;;;;;11.22;100.00;100901.84;5049269;28;20055;-83
2023/04/28 07:35:34;;;;;;;18.52;16.73;;;;;;;11.23;100.00;100915.84;5048345;28;20021;-84
2023/04/28 07:38:06;;;;;;;19.77;15.35;;;;;;;11.32;100.00;100916.94;5047590;28;20051;-84
2023/04/28 07:40:32;;;;;;;18.02;16.13;;;;;;;11.29;100.00;100924.13;5048878;28;20028;-84
2023/04/28 07:43:02;;;;;;;18.60;15.55;;;;;;;11.38;100.00;100927.84;5044930;28;20052;-83
2023/04/28 07:45:28;;;;;;;19.35;16.67;;;;;;;11.44;100.00;100913.34;5060418;28;20519;-83
2023/04/28 07:47:53;;;;;;;19.98;16.83;;;;;;;11.42;100.00;100916.09;5063100;28;20112;-83
2023/04/28 07:50:25;;;;;;;19.05;17.10;;;;;;;11.43;100.00;100917.78;5048572;28;20442;-83
2023/04/28 07:53:04;;;;;;;19.85;17.63;;;;;;;11.51;100.00;100925.09;5050798;28;20021;-83
2023/04/28 07:55:43;;;;;;;22.13;18.33;;;;;;;11.48;100.00;100912.16;5050113;28;20025;-83
2023/04/28 07:58:12;;;;;;;21.45;19.17;;;;;;;11.49;100.00;100911.19;5050848;28;20111;-83
2023/04/28 08:00:37;;;;;;;19.67;17.77;;;;;;;11.54;100.00;100912.53;5046614;28;20386;-83
2023/04/28 08:03:03;;;;;;;20.95;18.75;;;;;;;11.57;100.00;100909.66;5030957;28;20059;-84
2023/04/28 08:05:28;;;;;;;21.15;19.05;;;;;;;11.59;100.00;100907.75;5048129;28;20363;-83
2023/04/28 08:07:58;;;;;;;21.70;19.50;;;;;;;11.60;100.00;100914.69;5030723;28;20033;-83
2023/04/28 08:10:30;;;;;;;22.60;20.23;;;;;;;11.65;100.00;100909.09;5047448;28;20474;-82
2023/04/28 08:12:58;;;;;;;22.40;20.20;;;;;;;11.69;100.00;100913.16;5047926;28;20773;-83
2023/04/28 08:15:26;;;;;;;20.17;18.17;;;;;;;11.68;100.00;100910.66;5034624;28;20116;-82
2023/04/28 08:17:54;;;;;;;22.25;19.95;;;;;;;11.63;100.00;100913.63;5053089;28;20017;-82
2023/04/28 08:20:23;;;;;;;22.77;20.08;;;;;;;11.65;100.00;100905.63;5052222;28;20037;-82
2023/04/28 08:22:57;;;;;;;23.75;20.10;;;;;;;11.70;100.00;100914.84;5053184;28;20036;-82
2023/04/28 08:25:26;;;;;;;22.80;20.55;;;;;;;11.73;100.00;100913.75;5052306;28;20130;-82
2023/04/28 08:27:59;;;;;;;22.33;20.02;;;;;;;11.77;100.00;100909.91;5050390;28;20600;-85
2023/04/28 08:30:24;;;;;;;22.55;20.25;;;;;;;11.85;100.00;100912.81;5051018;28;20033;-84
2023/04/28 08:32:54;;;;;;;24.25;20.30;;;;;;;11.88;100.00;100912.59;5068316;28;20019;-85
2023/04/28 08:35:19;;;;;;;23.27;20.85;;;;;;;11.98;100.00;100907.41;5067438;28;20352;-85
2023/04/28 08:37:46;;;;;;;25.42;21.80;;;;;;;12.10;100.00;100907.31;5053251;28;20020;-83
2023/04/28 08:40:14;;;;;;;22.65;20.20;;;;;;;12.22;100.00;100916.88;5047489;28;20036;-82
2023/04/28 08:42:45;;;;;;;21.55;19.35;;;;;;;12.21;100.00;100909.09;5032044;28;20048;-82
2023/04/28 08:45:19;;;;;;;23.92;21.50;;;;;;;12.28;100.00;100912.91;5029999;28;20022;-83
2023/04/28 08:47:53;;;;;;;25.33;22.15;;;;;;;12.30;100.00;100903.06;5029451;28;20048;-85
2023/04/28 08:50:27;;;;;;;26.30;22.35;;;;;;;12.37;100.00;100914.81;5031279;28;20033;-85
2023/04/28 08:52:58;;;;;;;24.13;21.52;;;;;;;12.44;100.00;100909.91;5029977;28;20034;-85
2023/04/28 08:55:27;;;;;;;23.58;21.17;;;;;;;12.51;100.00;100916.34;5029306;28;20018;-85
2023/04/28 08:58:09;;;;;;;23.83;21.30;;;;;;;12.51;100.00;100919.81;5031882;28;20049;-83
2023/04/28 09:00:38;;;;;;;23.60;21.10;;;;;;;12.52;100.00;100921.50;5030050;28;20029;-83
2023/04/28 09:03:12;;;;;;;24.17;21.60;;;;;;;12.54;100.00;100926.66;5028855;28;20024;-83
2023/04/28 09:05:41;;;;;;;24.02;21.00;;;;;;;12.55;100.00;100920.41;5030314;28;20032;-83
2023/04/28 09:08:06;;;;;;;27.15;21.90;;;;;;;12.56;100.00;100922.09;5030968;28;20029;-83
2023/04/28 09:10:31;;;;;;;24.02;21.52;;;;;;;12.57;100.00;100915.00;5031094;28;20028;-83
2023/04/28 09:12:57;;;;;;;24.27;21.88;;;;;;;12.67;100.00;100910.66;5046954;28;20049;-83
2023/04/28 09:15:41;;;;;;;24.40;21.80;;;;;;;12.75;100.00;100916.13;5032873;28;20029;-82
2023/04/28 09:18:13;;;;;;;25.70;23.10;;;;;;;12.78;100.00;100907.97;5050453;28;20033;-84
2023/04/28 09:20:39;;;;;;;26.87;24.07;;;;;;;12.85;100.00;100911.78;5066542;28;20073;-82
2023/04/28 09:23:21;;;;;;;25.38;22.77;;;;;;;12.90;100.00;100914.06;5050373;28;20632;-83
2023/04/28 09:26:11;;;;;;;26.80;23.95;;;;;;;12.93;100.00;100917.28;5052361;28;20021;-83
2023/04/28 09:28:37;;;;;;;27.20;24.27;;;;;;;12.98;100.00;100908.97;5051597;28;20040;-84
2023/04/28 09:31:27;;;;;;;26.58;23.77;;;;;;;13.02;100.00;100905.94;5049762;28;20017;-84
2023/04/28 09:34:05;;;;;;;27.50;24.42;;;;;;;13.03;100.00;100915.53;5052015;28;20506;-83
2023/04/28 09:36:51;;;;;;;27.58;24.67;;;;;;;13.10;100.00;100914.06;5051509;28;20013;-84
2023/04/28 09:39:32;;;;;;;27.00;24.23;;;;;;;13.11;100.00;100913.09;5050218;28;20033;-83
2023/04/28 09:42:13;;;;;;;26.95;24.05;;;;;;;13.13;100.00;100923.53;5051552;28;20114;-83
2023/04/28 09:44:41;;;;;;;26.98;24.10;;;;;;;13.07;100.00;100922.25;5049736;28;20154;-83
2023/04/28 09:47:22;;;;;;;27.55;24.75;;;;;;;13.07;100.00;100924.88;5066549;28;20032;-83
2023/04/28 09:50:17;;;;;;;26.52;23.88;;;;;;;13.05;100.00;100932.09;5048958;28;20040;-83
2023/04/28 09:52:58;;;;;;;28.92;25.92;;;;;;;13.04;100.00;100925.16;5051095;28;20025;-83
2023/04/28 09:55:37;;;;;;;31.30;28.25;;;;;;;12.99;100.00;100929.97;5050906;28;20032;-83
2023/04/28 09:58:10;;;;;;;34.08;30.52;;;;;;;13.03;100.00;100933.19;5050311;28;20038;-83
2023/04/28 10:00:39;;;;;;;36.40;32.50;;;;;;;13.01;100.00;100927.19;5050526;28;20021;-83
2023/04/28 10:03:10;;;;;;;42.42;36.90;;;;;;;13.03;100.00;100928.75;5049877;28;20433;-84
2023/04/28 10:05:39;;;;;;;42.85;37.90;;;;;;;13.04;100.00;100925.16;5048787;28;20657;-84
2023/04/28 10:08:12;;;;;;;47.67;41.55;;;;;;;13.12;100.00;100933.25;5049853;28;20474;-83
2023/04/28 10:10:43;;;;;;;51.10;44.08;;;;;;;13.14;100.00;100920.75;5064891;28;20090;-83
2023/04/28 10:13:12;;;;;;;56.83;46.60;;;;;;;13.19;100.00;100930.97;5048487;28;20029;-84
2023/04/28 10:15:41;;;;;;;56.30;45.40;;;;;;;13.18;100.00;100931.94;5050281;28;20091;-84
2023/04/28 10:18:11;;;;;;;53.95;45.05;;;;;;;13.27;100.00;100930.34;5048358;28;20021;-84
2023/04/28 10:20:43;;;;;;;52.75;46.20;;;;;;;13.38;100.00;100922.34;5048414;28;20071;-84
2023/04/28 10:23:53;;;;;;;55.28;46.45;;;;;;;13.42;100.00;100913.19;5049857;28;20102;-84
2023/04/28 10:26:20;;;;;;;52.00;45.22;;;;;;;13.42;100.00;100923.78;5010880;28;20539;-84
2023/04/28 10:29:03;;;;;;;49.33;43.92;;;;;;;13.45;100.00;100928.78;5050097;28;20105;-84
2023/04/28 10:31:29;;;;;;;48.78;43.47;;;;;;;13.46;100.00;100914.59;5049931;28;20048;-84
2023/04/28 10:34:22;;;;;;;48.35;42.90;;;;;;;13.50;100.00;100916.03;5048035;28;20056;-84
2023/04/28 10:36:54;;;;;;;46.75;41.65;;;;;;;13.50;100.00;100921.31;5050241;28;20024;-84
2023/04/28 10:39:24;;;;;;;46.35;41.38;;;;;;;13.57;100.00;100911.03;5047319;28;20033;-84
2023/04/28 10:41:50;;;;;;;45.45;40.65;;;;;;;13.64;100.00;100918.34;5049849;28;20409;-84
2023/04/28 10:44:30;;;;;;;44.58;39.97;;;;;;;13.81;100.00;100914.25;5050070;28;20028;-85
2023/04/28 10:47:09;;;;;;;41.80;37.53;;;;;;;13.88;100.00;100906.59;5050678;28;20388;-85
2023/04/28 10:50:07;;;;;;;40.20;36.13;;;;;;;13.97;100.00;100908.44;5049873;28;20111;-84
2023/04/28 10:52:36;;;;;;;39.90;35.50;;;;;;;14.06;100.00;100910.31;5048653;28;20044;-84
2023/04/28 10:55:29;;;;;;;37.17;33.70;;;;;;;14.13;100.00;100914.09;5048119;28;20114;-84
2023/04/28 10:58:16;;;;;;;37.17;33.47;;;;;;;14.18;100.00;100909.22;5050709;28;20032;-84
2023/04/28 11:00:47;;;;;;;34.00;30.70;;;;;;;14.25;100.00;100907.72;5050022;28;20029;-84
2023/04/28 11:04:13;;;;;;;32.70;29.70;;;;;;;14.45;100.00;100899.84;5049232;28;20025;-84
2023/04/28 11:06:41;;;;;;;30.42;27.48;;;;;;;14.51;100.00;100902.78;4987680;28;20066;-84
2023/04/28 11:09:24;;;;;;;29.83;27.00;;;;;;;14.53;100.00;100898.19;4987576;28;20042;-83
2023/04/28 11:11:58;;;;;;;29.05;26.33;;;;;;;14.56;100.00;100889.13;4972433;28;20481;-84
2023/04/28 11:14:24;;;;;;;28.17;25.63;;;;;;;14.58;100.00;100889.81;5018289;28;20072;-83
2023/04/28 11:17:00;;;;;;;27.27;24.77;;;;;;;14.70;100.00;100897.50;5049602;28;20061;-84
2023/04/28 11:19:40;;;;;;;25.73;23.40;;;;;;;14.75;100.00;100891.78;5047539;28;20036;-83
2023/04/28 11:22:20;;;;;;;23.95;21.85;;;;;;;14.85;100.00;100892.63;5048665;28;20033;-83
2023/04/28 11:25:00;;;;;;;24.77;22.58;;;;;;;14.93;100.00;100897.22;5063925;28;20028;-83